sensor_id;sensor_type;location;lat;lon;timestamp;P1;durP1;ratioP1;P2;durP2;ratioP2
54025;SDS011;74404;50.662;3.398;2023-12-07T00:00:06;15.75;;;10.18;;
54025;SDS011;74404;50.662;3.398;2023-12-07T00:02:32;16.52;;;10.38;;
54025;SDS011;74404;50.662;3.398;2023-12-07T00:04:57;20.92;;;10.63;;
54025;SDS011;74404;50.662;3.398;2023-12-07T00:07:23;17.40;;;10.70;;
54025;SDS011;74404;50.662;3.398;2023-12-07T00:09:48;16.80;;;10.15;;
54025;SDS011;74404;50.662;3.398;2023-12-07T00:12:13;17.08;;;10.57;;
54025;SDS011;74404;50.662;3.398;2023-12-07T00:14:39;17.98;;;11.02;;
54025;SDS011;74404;50.662;3.398;2023-12-07T00:17:04;19.00;;;11.50;;
54025;SDS011;74404;50.662;3.398;2023-12-07T00:19:30;19.15;;;11.93;;
54025;SDS011;74404;50.662;3.398;2023-12-07T00:21:55;19.60;;;11.88;;
54025;SDS011;74404;50.662;3.398;2023-12-07T00:24:21;21.67;;;12.38;;
54025;SDS011;74404;50.662;3.398;2023-12-07T00:26:46;20.85;;;12.32;;
54025;SDS011;74404;50.662;3.398;2023-12-07T00:29:12;25.38;;;13.65;;
54025;SDS011;74404;50.662;3.398;2023-12-07T00:31:37;24.35;;;13.57;;
54025;SDS011;74404;50.662;3.398;2023-12-07T00:34:02;28.88;;;14.52;;
54025;SDS011;74404;50.662;3.398;2023-12-07T00:36:28;27.77;;;14.77;;
54025;SDS011;74404;50.662;3.398;2023-12-07T00:38:54;27.42;;;15.18;;
54025;SDS011;74404;50.662;3.398;2023-12-07T00:41:19;27.75;;;15.48;;
54025;SDS011;74404;50.662;3.398;2023-12-07T00:43:45;28.83;;;15.18;;
54025;SDS011;74404;50.662;3.398;2023-12-07T00:46:10;30.67;;;15.98;;
54025;SDS011;74404;50.662;3.398;2023-12-07T00:48:36;35.22;;;17.38;;
54025;SDS011;74404;50.662;3.398;2023-12-07T00:51:01;30.05;;;16.20;;
54025;SDS011;74404;50.662;3.398;2023-12-07T00:53:27;33.13;;;17.40;;
54025;SDS011;74404;50.662;3.398;2023-12-07T00:55:53;33.60;;;17.15;;
54025;SDS011;74404;50.662;3.398;2023-12-07T00:58:18;29.40;;;16.33;;
54025;SDS011;74404;50.662;3.398;2023-12-07T01:00:44;33.80;;;17.33;;
54025;SDS011;74404;50.662;3.398;2023-12-07T01:03:09;35.08;;;18.08;;
54025;SDS011;74404;50.662;3.398;2023-12-07T01:05:35;36.72;;;18.50;;
54025;SDS011;74404;50.662;3.398;2023-12-07T01:08:00;36.72;;;19.10;;
54025;SDS011;74404;50.662;3.398;2023-12-07T01:10:26;40.67;;;19.75;;
54025;SDS011;74404;50.662;3.398;2023-12-07T01:12:51;36.00;;;18.73;;
54025;SDS011;74404;50.662;3.398;2023-12-07T01:15:17;37.33;;;19.73;;
54025;SDS011;74404;50.662;3.398;2023-12-07T01:17:42;35.63;;;19.00;;
54025;SDS011;74404;50.662;3.398;2023-12-07T01:20:08;35.70;;;18.83;;
54025;SDS011;74404;50.662;3.398;2023-12-07T01:22:38;41.95;;;20.35;;
54025;SDS011;74404;50.662;3.398;2023-12-07T01:25:06;38.22;;;19.23;;
54025;SDS011;74404;50.662;3.398;2023-12-07T01:27:33;36.53;;;20.23;;
54025;SDS011;74404;50.662;3.398;2023-12-07T01:29:58;38.17;;;19.90;;
54025;SDS011;74404;50.662;3.398;2023-12-07T01:32:24;41.47;;;20.80;;
54025;SDS011;74404;50.662;3.398;2023-12-07T01:34:49;41.92;;;20.63;;
54025;SDS011;74404;50.662;3.398;2023-12-07T01:37:15;41.03;;;20.75;;
54025;SDS011;74404;50.662;3.398;2023-12-07T01:39:43;39.63;;;20.20;;
54025;SDS011;74404;50.662;3.398;2023-12-07T01:42:09;40.35;;;20.13;;
54025;SDS011;74404;50.662;3.398;2023-12-07T01:44:36;37.42;;;19.52;;
54025;SDS011;74404;50.662;3.398;2023-12-07T01:47:01;38.95;;;19.10;;
54025;SDS011;74404;50.662;3.398;2023-12-07T01:49:27;39.22;;;19.92;;
54025;SDS011;74404;50.662;3.398;2023-12-07T01:51:54;40.50;;;19.98;;
54025;SDS011;74404;50.662;3.398;2023-12-07T01:54:20;39.50;;;20.40;;
54025;SDS011;74404;50.662;3.398;2023-12-07T01:56:46;39.42;;;19.60;;
54025;SDS011;74404;50.662;3.398;2023-12-07T01:59:12;37.88;;;19.83;;
54025;SDS011;74404;50.662;3.398;2023-12-07T02:01:37;38.20;;;18.77;;
54025;SDS011;74404;50.662;3.398;2023-12-07T02:04:03;37.10;;;18.55;;
54025;SDS011;74404;50.662;3.398;2023-12-07T02:06:28;40.08;;;18.50;;
54025;SDS011;74404;50.662;3.398;2023-12-07T02:08:55;34.10;;;18.83;;
54025;SDS011;74404;50.662;3.398;2023-12-07T02:11:21;37.72;;;18.77;;
54025;SDS011;74404;50.662;3.398;2023-12-07T02:13:46;37.30;;;18.48;;
54025;SDS011;74404;50.662;3.398;2023-12-07T02:16:15;36.72;;;17.25;;
54025;SDS011;74404;50.662;3.398;2023-12-07T02:18:51;37.33;;;18.20;;
54025;SDS011;74404;50.662;3.398;2023-12-07T02:21:42;37.47;;;18.17;;
54025;SDS011;74404;50.662;3.398;2023-12-07T02:24:29;36.03;;;17.50;;
54025;SDS011;74404;50.662;3.398;2023-12-07T02:26:58;37.03;;;17.92;;
54025;SDS011;74404;50.662;3.398;2023-12-07T02:29:24;33.70;;;16.83;;
54025;SDS011;74404;50.662;3.398;2023-12-07T02:31:49;33.65;;;16.92;;
54025;SDS011;74404;50.662;3.398;2023-12-07T02:34:15;36.28;;;17.08;;
54025;SDS011;74404;50.662;3.398;2023-12-07T02:36:41;32.38;;;16.75;;
54025;SDS011;74404;50.662;3.398;2023-12-07T02:39:10;35.03;;;17.83;;
54025;SDS011;74404;50.662;3.398;2023-12-07T02:41:37;32.95;;;17.63;;
54025;SDS011;74404;50.662;3.398;2023-12-07T02:44:05;32.78;;;17.55;;
54025;SDS011;74404;50.662;3.398;2023-12-07T02:46:32;35.60;;;17.95;;
54025;SDS011;74404;50.662;3.398;2023-12-07T02:48:58;36.78;;;18.15;;
54025;SDS011;74404;50.662;3.398;2023-12-07T02:51:24;37.05;;;17.80;;
54025;SDS011;74404;50.662;3.398;2023-12-07T02:53:49;32.10;;;16.73;;
54025;SDS011;74404;50.662;3.398;2023-12-07T02:56:15;33.83;;;18.00;;
54025;SDS011;74404;50.662;3.398;2023-12-07T02:58:40;34.35;;;18.20;;
54025;SDS011;74404;50.662;3.398;2023-12-07T03:01:06;31.95;;;16.60;;
54025;SDS011;74404;50.662;3.398;2023-12-07T03:03:33;35.20;;;17.52;;
54025;SDS011;74404;50.662;3.398;2023-12-07T03:05:58;34.83;;;18.33;;
54025;SDS011;74404;50.662;3.398;2023-12-07T03:08:24;36.20;;;18.50;;
54025;SDS011;74404;50.662;3.398;2023-12-07T03:10:49;38.20;;;18.60;;
54025;SDS011;74404;50.662;3.398;2023-12-07T03:13:15;34.97;;;17.65;;
54025;SDS011;74404;50.662;3.398;2023-12-07T03:15:40;37.42;;;18.48;;
54025;SDS011;74404;50.662;3.398;2023-12-07T03:18:06;33.45;;;17.55;;
54025;SDS011;74404;50.662;3.398;2023-12-07T03:20:32;38.53;;;18.77;;
54025;SDS011;74404;50.662;3.398;2023-12-07T03:22:57;38.85;;;19.92;;
54025;SDS011;74404;50.662;3.398;2023-12-07T03:25:23;35.95;;;18.38;;
54025;SDS011;74404;50.662;3.398;2023-12-07T03:27:49;34.35;;;17.90;;
54025;SDS011;74404;50.662;3.398;2023-12-07T03:30:15;35.30;;;18.00;;
54025;SDS011;74404;50.662;3.398;2023-12-07T03:32:40;36.47;;;17.90;;
54025;SDS011;74404;50.662;3.398;2023-12-07T03:35:06;36.22;;;18.42;;
54025;SDS011;74404;50.662;3.398;2023-12-07T03:37:32;40.58;;;19.02;;
54025;SDS011;74404;50.662;3.398;2023-12-07T03:39:57;32.58;;;17.77;;
54025;SDS011;74404;50.662;3.398;2023-12-07T03:42:22;36.10;;;17.85;;
54025;SDS011;74404;50.662;3.398;2023-12-07T03:44:48;34.00;;;18.15;;
54025;SDS011;74404;50.662;3.398;2023-12-07T03:47:13;34.00;;;18.58;;
54025;SDS011;74404;50.662;3.398;2023-12-07T03:49:39;33.17;;;17.75;;
54025;SDS011;74404;50.662;3.398;2023-12-07T03:52:06;32.25;;;17.42;;
54025;SDS011;74404;50.662;3.398;2023-12-07T03:54:32;33.30;;;17.73;;
54025;SDS011;74404;50.662;3.398;2023-12-07T03:56:57;34.53;;;17.35;;
54025;SDS011;74404;50.662;3.398;2023-12-07T03:59:23;34.80;;;18.08;;
54025;SDS011;74404;50.662;3.398;2023-12-07T04:01:48;33.00;;;18.08;;
54025;SDS011;74404;50.662;3.398;2023-12-07T04:04:14;33.63;;;18.35;;
54025;SDS011;74404;50.662;3.398;2023-12-07T04:06:40;30.55;;;16.98;;
54025;SDS011;74404;50.662;3.398;2023-12-07T04:09:05;32.85;;;18.00;;
54025;SDS011;74404;50.662;3.398;2023-12-07T04:11:31;30.80;;;16.77;;
54025;SDS011;74404;50.662;3.398;2023-12-07T04:13:56;29.75;;;17.30;;
54025;SDS011;74404;50.662;3.398;2023-12-07T04:16:21;32.42;;;18.45;;
54025;SDS011;74404;50.662;3.398;2023-12-07T04:18:47;29.88;;;17.23;;
54025;SDS011;74404;50.662;3.398;2023-12-07T04:21:13;30.60;;;16.85;;
54025;SDS011;74404;50.662;3.398;2023-12-07T04:23:39;30.67;;;17.85;;
54025;SDS011;74404;50.662;3.398;2023-12-07T04:26:04;31.40;;;17.33;;
54025;SDS011;74404;50.662;3.398;2023-12-07T04:28:30;33.33;;;17.38;;
54025;SDS011;74404;50.662;3.398;2023-12-07T04:30:56;32.83;;;18.48;;
54025;SDS011;74404;50.662;3.398;2023-12-07T04:33:21;28.40;;;17.17;;
54025;SDS011;74404;50.662;3.398;2023-12-07T04:35:47;32.97;;;16.88;;
54025;SDS011;74404;50.662;3.398;2023-12-07T04:38:12;30.35;;;16.75;;
54025;SDS011;74404;50.662;3.398;2023-12-07T04:40:38;30.65;;;16.90;;
54025;SDS011;74404;50.662;3.398;2023-12-07T04:43:03;31.17;;;17.15;;
54025;SDS011;74404;50.662;3.398;2023-12-07T04:45:29;30.08;;;17.20;;
54025;SDS011;74404;50.662;3.398;2023-12-07T04:47:54;29.10;;;17.35;;
54025;SDS011;74404;50.662;3.398;2023-12-07T04:50:22;29.67;;;16.45;;
54025;SDS011;74404;50.662;3.398;2023-12-07T04:52:47;25.63;;;15.20;;
54025;SDS011;74404;50.662;3.398;2023-12-07T04:55:13;27.98;;;17.10;;
54025;SDS011;74404;50.662;3.398;2023-12-07T04:57:40;27.65;;;16.60;;
54025;SDS011;74404;50.662;3.398;2023-12-07T05:00:06;28.30;;;16.63;;
54025;SDS011;74404;50.662;3.398;2023-12-07T05:02:31;26.55;;;16.38;;
54025;SDS011;74404;50.662;3.398;2023-12-07T05:04:57;30.60;;;16.50;;
54025;SDS011;74404;50.662;3.398;2023-12-07T05:07:22;26.20;;;15.30;;
54025;SDS011;74404;50.662;3.398;2023-12-07T05:09:49;28.30;;;16.13;;
54025;SDS011;74404;50.662;3.398;2023-12-07T05:12:16;28.20;;;17.13;;
54025;SDS011;74404;50.662;3.398;2023-12-07T05:14:42;30.95;;;15.90;;
54025;SDS011;74404;50.662;3.398;2023-12-07T05:17:07;29.15;;;16.45;;
54025;SDS011;74404;50.662;3.398;2023-12-07T05:19:33;28.90;;;16.65;;
54025;SDS011;74404;50.662;3.398;2023-12-07T05:21:58;31.27;;;16.40;;
54025;SDS011;74404;50.662;3.398;2023-12-07T05:24:24;30.33;;;17.50;;
54025;SDS011;74404;50.662;3.398;2023-12-07T05:26:49;27.20;;;16.08;;
54025;SDS011;74404;50.662;3.398;2023-12-07T05:29:15;32.38;;;16.60;;
54025;SDS011;74404;50.662;3.398;2023-12-07T05:31:40;28.92;;;16.70;;
54025;SDS011;74404;50.662;3.398;2023-12-07T05:34:06;31.67;;;16.33;;
54025;SDS011;74404;50.662;3.398;2023-12-07T05:36:32;30.58;;;16.15;;
54025;SDS011;74404;50.662;3.398;2023-12-07T05:38:58;27.83;;;16.40;;
54025;SDS011;74404;50.662;3.398;2023-12-07T05:41:23;26.13;;;15.85;;
54025;SDS011;74404;50.662;3.398;2023-12-07T05:43:50;28.77;;;16.63;;
54025;SDS011;74404;50.662;3.398;2023-12-07T05:46:16;29.27;;;16.38;;
54025;SDS011;74404;50.662;3.398;2023-12-07T05:48:41;28.15;;;15.88;;
54025;SDS011;74404;50.662;3.398;2023-12-07T05:51:13;28.92;;;16.25;;
54025;SDS011;74404;50.662;3.398;2023-12-07T05:53:43;30.75;;;16.73;;
54025;SDS011;74404;50.662;3.398;2023-12-07T05:56:09;29.42;;;15.38;;
54025;SDS011;74404;50.662;3.398;2023-12-07T05:58:35;28.08;;;15.02;;
54025;SDS011;74404;50.662;3.398;2023-12-07T06:01:00;29.02;;;15.50;;
54025;SDS011;74404;50.662;3.398;2023-12-07T06:03:27;28.55;;;15.98;;
54025;SDS011;74404;50.662;3.398;2023-12-07T06:05:53;28.55;;;15.32;;
54025;SDS011;74404;50.662;3.398;2023-12-07T06:08:19;27.70;;;15.45;;
54025;SDS011;74404;50.662;3.398;2023-12-07T06:10:44;27.73;;;15.90;;
54025;SDS011;74404;50.662;3.398;2023-12-07T06:13:11;28.90;;;15.00;;
54025;SDS011;74404;50.662;3.398;2023-12-07T06:15:38;23.85;;;15.25;;
54025;SDS011;74404;50.662;3.398;2023-12-07T06:18:04;27.85;;;14.75;;
54025;SDS011;74404;50.662;3.398;2023-12-07T06:20:29;30.20;;;15.77;;
54025;SDS011;74404;50.662;3.398;2023-12-07T06:22:55;27.48;;;14.10;;
54025;SDS011;74404;50.662;3.398;2023-12-07T06:25:20;27.85;;;15.35;;
54025;SDS011;74404;50.662;3.398;2023-12-07T06:27:46;28.08;;;15.20;;
54025;SDS011;74404;50.662;3.398;2023-12-07T06:30:12;30.75;;;15.48;;
54025;SDS011;74404;50.662;3.398;2023-12-07T06:32:37;31.13;;;15.32;;
54025;SDS011;74404;50.662;3.398;2023-12-07T06:35:03;25.17;;;13.93;;
54025;SDS011;74404;50.662;3.398;2023-12-07T06:37:32;27.90;;;14.35;;
54025;SDS011;74404;50.662;3.398;2023-12-07T06:39:58;24.20;;;13.52;;
54025;SDS011;74404;50.662;3.398;2023-12-07T06:42:25;27.27;;;14.88;;
54025;SDS011;74404;50.662;3.398;2023-12-07T06:44:51;26.52;;;14.15;;
54025;SDS011;74404;50.662;3.398;2023-12-07T06:47:17;28.45;;;14.85;;
54025;SDS011;74404;50.662;3.398;2023-12-07T06:49:43;25.70;;;13.88;;
54025;SDS011;74404;50.662;3.398;2023-12-07T06:52:09;27.58;;;14.25;;
54025;SDS011;74404;50.662;3.398;2023-12-07T06:54:36;25.08;;;14.10;;
54025;SDS011;74404;50.662;3.398;2023-12-07T06:57:01;25.65;;;13.77;;
54025;SDS011;74404;50.662;3.398;2023-12-07T06:59:27;27.05;;;13.77;;
54025;SDS011;74404;50.662;3.398;2023-12-07T07:01:53;25.48;;;13.50;;
54025;SDS011;74404;50.662;3.398;2023-12-07T07:04:19;23.50;;;12.73;;
54025;SDS011;74404;50.662;3.398;2023-12-07T07:06:44;25.98;;;13.90;;
54025;SDS011;74404;50.662;3.398;2023-12-07T07:09:10;23.02;;;12.88;;
54025;SDS011;74404;50.662;3.398;2023-12-07T07:11:36;23.17;;;13.05;;
54025;SDS011;74404;50.662;3.398;2023-12-07T07:14:02;28.13;;;13.32;;
54025;SDS011;74404;50.662;3.398;2023-12-07T07:16:27;26.65;;;13.43;;
54025;SDS011;74404;50.662;3.398;2023-12-07T07:18:53;29.75;;;14.05;;
54025;SDS011;74404;50.662;3.398;2023-12-07T07:21:18;25.35;;;13.75;;
54025;SDS011;74404;50.662;3.398;2023-12-07T07:23:44;25.63;;;13.32;;
54025;SDS011;74404;50.662;3.398;2023-12-07T07:26:10;23.92;;;12.23;;
54025;SDS011;74404;50.662;3.398;2023-12-07T07:28:36;31.05;;;12.93;;
54025;SDS011;74404;50.662;3.398;2023-12-07T07:31:02;28.17;;;13.07;;
54025;SDS011;74404;50.662;3.398;2023-12-07T07:33:28;23.40;;;12.65;;
54025;SDS011;74404;50.662;3.398;2023-12-07T07:35:53;21.15;;;13.07;;
54025;SDS011;74404;50.662;3.398;2023-12-07T07:38:18;23.38;;;12.63;;
54025;SDS011;74404;50.662;3.398;2023-12-07T07:40:44;23.58;;;12.02;;
54025;SDS011;74404;50.662;3.398;2023-12-07T07:43:10;20.92;;;11.98;;
54025;SDS011;74404;50.662;3.398;2023-12-07T07:45:36;26.33;;;12.50;;
54025;SDS011;74404;50.662;3.398;2023-12-07T07:48:01;24.17;;;12.60;;
54025;SDS011;74404;50.662;3.398;2023-12-07T07:50:27;24.25;;;12.20;;
54025;SDS011;74404;50.662;3.398;2023-12-07T07:52:54;23.00;;;12.30;;
54025;SDS011;74404;50.662;3.398;2023-12-07T07:55:20;21.80;;;11.45;;
54025;SDS011;74404;50.662;3.398;2023-12-07T07:57:45;22.75;;;11.98;;
54025;SDS011;74404;50.662;3.398;2023-12-07T08:00:11;21.75;;;11.98;;
54025;SDS011;74404;50.662;3.398;2023-12-07T08:02:38;22.38;;;11.90;;
54025;SDS011;74404;50.662;3.398;2023-12-07T08:05:03;20.63;;;10.93;;
54025;SDS011;74404;50.662;3.398;2023-12-07T08:07:29;21.55;;;11.45;;
54025;SDS011;74404;50.662;3.398;2023-12-07T08:09:55;21.70;;;11.50;;
54025;SDS011;74404;50.662;3.398;2023-12-07T08:12:20;19.50;;;11.18;;
54025;SDS011;74404;50.662;3.398;2023-12-07T08:14:49;23.70;;;11.80;;
54025;SDS011;74404;50.662;3.398;2023-12-07T08:17:15;23.27;;;11.48;;
54025;SDS011;74404;50.662;3.398;2023-12-07T08:19:41;19.98;;;11.05;;
54025;SDS011;74404;50.662;3.398;2023-12-07T08:22:07;20.13;;;10.63;;
54025;SDS011;74404;50.662;3.398;2023-12-07T08:24:33;20.60;;;10.98;;
54025;SDS011;74404;50.662;3.398;2023-12-07T08:26:59;18.05;;;10.35;;
54025;SDS011;74404;50.662;3.398;2023-12-07T08:29:24;19.73;;;10.98;;
54025;SDS011;74404;50.662;3.398;2023-12-07T08:31:50;22.63;;;11.65;;
54025;SDS011;74404;50.662;3.398;2023-12-07T08:34:16;19.67;;;11.00;;
54025;SDS011;74404;50.662;3.398;2023-12-07T08:36:42;21.42;;;10.95;;
54025;SDS011;74404;50.662;3.398;2023-12-07T08:39:07;22.08;;;10.48;;
54025;SDS011;74404;50.662;3.398;2023-12-07T08:41:34;18.98;;;10.50;;
54025;SDS011;74404;50.662;3.398;2023-12-07T08:44:01;19.80;;;10.27;;
54025;SDS011;74404;50.662;3.398;2023-12-07T08:46:27;22.20;;;11.45;;
54025;SDS011;74404;50.662;3.398;2023-12-07T08:48:52;22.15;;;10.82;;
54025;SDS011;74404;50.662;3.398;2023-12-07T08:51:18;18.08;;;10.98;;
54025;SDS011;74404;50.662;3.398;2023-12-07T08:53:45;19.58;;;11.02;;
54025;SDS011;74404;50.662;3.398;2023-12-07T08:56:11;17.13;;;10.07;;
54025;SDS011;74404;50.662;3.398;2023-12-07T08:58:38;18.17;;;10.70;;
54025;SDS011;74404;50.662;3.398;2023-12-07T09:01:04;18.00;;;10.48;;
54025;SDS011;74404;50.662;3.398;2023-12-07T09:03:30;16.92;;;10.45;;
54025;SDS011;74404;50.662;3.398;2023-12-07T09:06:00;18.40;;;10.38;;
54025;SDS011;74404;50.662;3.398;2023-12-07T09:08:25;17.08;;;10.00;;
54025;SDS011;74404;50.662;3.398;2023-12-07T09:10:51;19.98;;;10.02;;
54025;SDS011;74404;50.662;3.398;2023-12-07T09:13:17;18.50;;;10.73;;
54025;SDS011;74404;50.662;3.398;2023-12-07T09:15:43;16.15;;;10.15;;
54025;SDS011;74404;50.662;3.398;2023-12-07T09:18:09;20.20;;;10.90;;
54025;SDS011;74404;50.662;3.398;2023-12-07T09:20:36;18.27;;;10.18;;
54025;SDS011;74404;50.662;3.398;2023-12-07T09:23:02;19.38;;;10.02;;
54025;SDS011;74404;50.662;3.398;2023-12-07T09:25:28;16.98;;;10.52;;
54025;SDS011;74404;50.662;3.398;2023-12-07T09:27:55;18.92;;;10.98;;
54025;SDS011;74404;50.662;3.398;2023-12-07T09:30:21;20.50;;;11.07;;
54025;SDS011;74404;50.662;3.398;2023-12-07T09:32:46;20.35;;;10.90;;
54025;SDS011;74404;50.662;3.398;2023-12-07T09:35:12;18.52;;;11.13;;
54025;SDS011;74404;50.662;3.398;2023-12-07T09:37:44;18.40;;;10.13;;
54025;SDS011;74404;50.662;3.398;2023-12-07T09:40:16;18.63;;;10.80;;
54025;SDS011;74404;50.662;3.398;2023-12-07T09:42:46;18.73;;;10.52;;
54025;SDS011;74404;50.662;3.398;2023-12-07T09:45:12;20.48;;;10.65;;
54025;SDS011;74404;50.662;3.398;2023-12-07T09:47:39;20.23;;;10.57;;
54025;SDS011;74404;50.662;3.398;2023-12-07T09:50:07;18.92;;;10.77;;
54025;SDS011;74404;50.662;3.398;2023-12-07T09:52:37;23.30;;;12.10;;
54025;SDS011;74404;50.662;3.398;2023-12-07T09:55:03;24.33;;;14.38;;
54025;SDS011;74404;50.662;3.398;2023-12-07T09:57:31;25.13;;;14.63;;
54025;SDS011;74404;50.662;3.398;2023-12-07T09:59:58;21.95;;;13.25;;
54025;SDS011;74404;50.662;3.398;2023-12-07T10:02:23;21.15;;;13.20;;
54025;SDS011;74404;50.662;3.398;2023-12-07T10:05:03;24.90;;;14.05;;
54025;SDS011;74404;50.662;3.398;2023-12-07T10:07:36;22.50;;;12.30;;
54025;SDS011;74404;50.662;3.398;2023-12-07T10:10:05;21.80;;;12.63;;
54025;SDS011;74404;50.662;3.398;2023-12-07T10:12:31;21.40;;;12.80;;
54025;SDS011;74404;50.662;3.398;2023-12-07T10:15:00;23.65;;;12.68;;
54025;SDS011;74404;50.662;3.398;2023-12-07T10:17:46;22.65;;;12.70;;
54025;SDS011;74404;50.662;3.398;2023-12-07T10:20:28;21.27;;;12.40;;
54025;SDS011;74404;50.662;3.398;2023-12-07T10:25:30;20.52;;;11.38;;
54025;SDS011;74404;50.662;3.398;2023-12-07T10:27:56;21.67;;;12.38;;
54025;SDS011;74404;50.662;3.398;2023-12-07T10:30:22;20.98;;;12.07;;
54025;SDS011;74404;50.662;3.398;2023-12-07T10:32:51;19.23;;;11.75;;
54025;SDS011;74404;50.662;3.398;2023-12-07T10:35:18;19.58;;;11.90;;
54025;SDS011;74404;50.662;3.398;2023-12-07T10:37:44;21.40;;;11.43;;
54025;SDS011;74404;50.662;3.398;2023-12-07T10:40:10;21.38;;;11.77;;
54025;SDS011;74404;50.662;3.398;2023-12-07T10:42:35;20.42;;;11.70;;
54025;SDS011;74404;50.662;3.398;2023-12-07T10:45:03;20.20;;;11.05;;
54025;SDS011;74404;50.662;3.398;2023-12-07T10:47:31;19.33;;;11.05;;
54025;SDS011;74404;50.662;3.398;2023-12-07T10:50:02;21.83;;;11.35;;
54025;SDS011;74404;50.662;3.398;2023-12-07T10:52:36;20.02;;;11.27;;
54025;SDS011;74404;50.662;3.398;2023-12-07T10:55:03;19.35;;;11.23;;
54025;SDS011;74404;50.662;3.398;2023-12-07T10:57:53;21.20;;;11.35;;
54025;SDS011;74404;50.662;3.398;2023-12-07T11:00:21;20.92;;;10.75;;
54025;SDS011;74404;50.662;3.398;2023-12-07T11:02:52;19.98;;;11.13;;
54025;SDS011;74404;50.662;3.398;2023-12-07T11:05:19;18.20;;;10.65;;
54025;SDS011;74404;50.662;3.398;2023-12-07T11:10:36;17.52;;;10.75;;
54025;SDS011;74404;50.662;3.398;2023-12-07T11:13:23;19.02;;;10.85;;
54025;SDS011;74404;50.662;3.398;2023-12-07T11:15:54;21.13;;;10.63;;
54025;SDS011;74404;50.662;3.398;2023-12-07T11:18:21;18.23;;;10.27;;
54025;SDS011;74404;50.662;3.398;2023-12-07T11:20:46;15.95;;;10.60;;
54025;SDS011;74404;50.662;3.398;2023-12-07T11:23:16;17.67;;;10.40;;
54025;SDS011;74404;50.662;3.398;2023-12-07T11:25:44;17.25;;;10.90;;
54025;SDS011;74404;50.662;3.398;2023-12-07T11:28:11;15.98;;;10.13;;
54025;SDS011;74404;50.662;3.398;2023-12-07T11:30:37;17.15;;;10.07;;
54025;SDS011;74404;50.662;3.398;2023-12-07T11:33:03;17.65;;;10.27;;
54025;SDS011;74404;50.662;3.398;2023-12-07T11:35:30;18.17;;;9.80;;
54025;SDS011;74404;50.662;3.398;2023-12-07T11:38:03;19.75;;;9.82;;
54025;SDS011;74404;50.662;3.398;2023-12-07T11:40:45;16.27;;;9.77;;
54025;SDS011;74404;50.662;3.398;2023-12-07T11:43:36;17.02;;;9.80;;
54025;SDS011;74404;50.662;3.398;2023-12-07T11:46:18;15.20;;;8.93;;
54025;SDS011;74404;50.662;3.398;2023-12-07T11:48:47;13.80;;;9.00;;
54025;SDS011;74404;50.662;3.398;2023-12-07T11:51:14;14.25;;;8.98;;
54025;SDS011;74404;50.662;3.398;2023-12-07T11:53:40;17.80;;;9.52;;
54025;SDS011;74404;50.662;3.398;2023-12-07T11:56:06;16.38;;;9.23;;
54025;SDS011;74404;50.662;3.398;2023-12-07T11:58:34;15.27;;;8.75;;
54025;SDS011;74404;50.662;3.398;2023-12-07T12:01:01;15.25;;;9.57;;
54025;SDS011;74404;50.662;3.398;2023-12-07T12:03:27;13.40;;;8.70;;
54025;SDS011;74404;50.662;3.398;2023-12-07T12:05:53;15.75;;;9.98;;
54025;SDS011;74404;50.662;3.398;2023-12-07T12:08:22;14.50;;;9.00;;
54025;SDS011;74404;50.662;3.398;2023-12-07T12:10:49;14.13;;;8.60;;
54025;SDS011;74404;50.662;3.398;2023-12-07T12:13:17;16.27;;;9.15;;
54025;SDS011;74404;50.662;3.398;2023-12-07T12:15:44;14.50;;;8.98;;
54025;SDS011;74404;50.662;3.398;2023-12-07T12:18:11;12.38;;;8.90;;
54025;SDS011;74404;50.662;3.398;2023-12-07T12:20:38;15.88;;;8.73;;
54025;SDS011;74404;50.662;3.398;2023-12-07T12:23:05;12.18;;;8.75;;
54025;SDS011;74404;50.662;3.398;2023-12-07T12:25:30;16.02;;;9.20;;
54025;SDS011;74404;50.662;3.398;2023-12-07T12:28:06;14.40;;;8.30;;
54025;SDS011;74404;50.662;3.398;2023-12-07T12:30:32;13.02;;;8.40;;
54025;SDS011;74404;50.662;3.398;2023-12-07T12:32:58;14.25;;;8.38;;
54025;SDS011;74404;50.662;3.398;2023-12-07T12:35:27;13.57;;;8.05;;
54025;SDS011;74404;50.662;3.398;2023-12-07T12:37:53;14.93;;;8.40;;
54025;SDS011;74404;50.662;3.398;2023-12-07T12:40:22;11.98;;;8.10;;
54025;SDS011;74404;50.662;3.398;2023-12-07T12:42:49;14.10;;;9.02;;
54025;SDS011;74404;50.662;3.398;2023-12-07T12:45:16;14.07;;;8.00;;
54025;SDS011;74404;50.662;3.398;2023-12-07T12:47:43;10.18;;;7.63;;
54025;SDS011;74404;50.662;3.398;2023-12-07T12:50:10;11.88;;;8.38;;
54025;SDS011;74404;50.662;3.398;2023-12-07T12:52:37;10.98;;;7.80;;
54025;SDS011;74404;50.662;3.398;2023-12-07T12:55:08;11.60;;;7.13;;
54025;SDS011;74404;50.662;3.398;2023-12-07T12:57:35;14.10;;;8.43;;
54025;SDS011;74404;50.662;3.398;2023-12-07T13:00:01;15.77;;;7.88;;
54025;SDS011;74404;50.662;3.398;2023-12-07T13:02:27;13.65;;;7.82;;
54025;SDS011;74404;50.662;3.398;2023-12-07T13:04:53;12.57;;;8.15;;
54025;SDS011;74404;50.662;3.398;2023-12-07T13:07:21;15.38;;;7.90;;
54025;SDS011;74404;50.662;3.398;2023-12-07T13:09:46;11.82;;;7.75;;
54025;SDS011;74404;50.662;3.398;2023-12-07T13:12:12;11.40;;;7.60;;
54025;SDS011;74404;50.662;3.398;2023-12-07T13:14:38;13.57;;;7.95;;
54025;SDS011;74404;50.662;3.398;2023-12-07T13:17:04;13.43;;;8.10;;
54025;SDS011;74404;50.662;3.398;2023-12-07T13:19:32;11.23;;;7.32;;
54025;SDS011;74404;50.662;3.398;2023-12-07T13:21:58;14.13;;;7.75;;
54025;SDS011;74404;50.662;3.398;2023-12-07T13:24:23;11.23;;;7.20;;
54025;SDS011;74404;50.662;3.398;2023-12-07T13:26:49;10.88;;;6.97;;
54025;SDS011;74404;50.662;3.398;2023-12-07T13:29:14;12.13;;;7.53;;
54025;SDS011;74404;50.662;3.398;2023-12-07T13:31:40;11.15;;;7.15;;
54025;SDS011;74404;50.662;3.398;2023-12-07T13:34:05;11.52;;;7.28;;
54025;SDS011;74404;50.662;3.398;2023-12-07T13:36:31;9.52;;;7.20;;
54025;SDS011;74404;50.662;3.398;2023-12-07T13:38:58;12.55;;;6.97;;
54025;SDS011;74404;50.662;3.398;2023-12-07T13:41:24;12.43;;;6.75;;
54025;SDS011;74404;50.662;3.398;2023-12-07T13:43:49;8.88;;;6.57;;
54025;SDS011;74404;50.662;3.398;2023-12-07T13:46:16;8.95;;;6.28;;
54025;SDS011;74404;50.662;3.398;2023-12-07T13:48:44;9.63;;;6.38;;
54025;SDS011;74404;50.662;3.398;2023-12-07T13:51:10;8.35;;;6.32;;
54025;SDS011;74404;50.662;3.398;2023-12-07T13:53:36;10.27;;;6.38;;
54025;SDS011;74404;50.662;3.398;2023-12-07T13:56:02;8.48;;;5.88;;
54025;SDS011;74404;50.662;3.398;2023-12-07T13:58:29;8.45;;;6.15;;
54025;SDS011;74404;50.662;3.398;2023-12-07T14:00:58;9.23;;;6.07;;
54025;SDS011;74404;50.662;3.398;2023-12-07T14:03:23;8.52;;;6.10;;
54025;SDS011;74404;50.662;3.398;2023-12-07T14:05:49;10.75;;;6.82;;
54025;SDS011;74404;50.662;3.398;2023-12-07T14:08:14;9.85;;;6.20;;
54025;SDS011;74404;50.662;3.398;2023-12-07T14:10:40;8.48;;;5.78;;
54025;SDS011;74404;50.662;3.398;2023-12-07T14:13:05;10.85;;;5.93;;
54025;SDS011;74404;50.662;3.398;2023-12-07T14:15:31;8.98;;;5.90;;
54025;SDS011;74404;50.662;3.398;2023-12-07T14:18:00;10.30;;;6.13;;
54025;SDS011;74404;50.662;3.398;2023-12-07T14:20:25;8.57;;;5.75;;
54025;SDS011;74404;50.662;3.398;2023-12-07T14:22:53;8.68;;;5.47;;
54025;SDS011;74404;50.662;3.398;2023-12-07T14:25:19;8.43;;;5.55;;
54025;SDS011;74404;50.662;3.398;2023-12-07T14:27:44;8.35;;;5.80;;